Time;durP1;ratioP1;P1;durP2;ratioP2;P2;SDS_P1;SDS_P2;PMS_P1;PMS_P2;Temp;Humidity;BMP_temperature;BMP_pressure;BME280_temperature;BME280_humidity;BME280_pressure;Samples;Min_cycle;Max_cycle;Signal;HPM_P1;HPM_P2
2023/10/30 00:02:07;;;;;;;8.73;5.38;;;;;;;13.63;52.79;95322.84;5001649;28;20195;-72
2023/10/30 00:04:33;;;;;;;10.70;5.35;;;;;;;13.68;53.15;95333.75;5004749;28;20233;-71
2023/10/30 00:06:59;;;;;;;9.05;4.65;;;;;;;13.66;52.86;95331.28;5004552;28;20237;-72
2023/10/30 00:09:24;;;;;;;7.38;3.70;;;;;;;13.71;52.28;95319.38;5007131;28;20243;-72
2023/10/30 00:11:50;;;;;;;8.30;3.78;;;;;;;13.77;51.78;95321.41;5002837;28;20222;-71
2023/10/30 00:14:15;;;;;;;7.38;4.07;;;;;;;13.81;51.91;95323.53;5001514;28;20199;-72
2023/10/30 00:16:41;;;;;;;7.78;3.88;;;;;;;13.82;51.69;95319.91;5001815;28;20239;-72
2023/10/30 00:19:06;;;;;;;6.70;3.60;;;;;;;13.80;51.48;95316.59;5001156;28;20251;-73
2023/10/30 00:21:32;;;;;;;6.78;3.50;;;;;;;14.02;51.05;95314.28;4998347;28;20223;-72
2023/10/30 00:23:57;;;;;;;7.65;3.58;;;;;;;13.94;51.52;95309.81;5001250;28;20298;-72
2023/10/30 00:26:23;;;;;;;6.47;3.22;;;;;;;13.86;51.79;95309.81;4996389;28;20279;-72
2023/10/30 00:28:48;;;;;;;4.80;3.53;;;;;;;13.76;52.46;95317.06;5002284;28;20253;-72
2023/10/30 00:31:14;;;;;;;8.43;3.35;;;;;;;13.95;51.89;95319.41;5007127;28;20219;-70
2023/10/30 00:33:39;;;;;;;7.82;3.72;;;;;;;13.26;53.66;95318.81;5010080;28;20221;-73
2023/10/30 00:36:05;;;;;;;8.20;4.55;;;;;;;13.07;54.21;95327.81;5002629;28;20246;-70
2023/10/30 00:38:30;;;;;;;5.05;4.32;;;;;;;12.85;54.79;95329.19;4988263;28;20414;-71
2023/10/30 00:40:56;;;;;;;6.22;4.43;;;;;;;13.18;54.22;95316.94;5002162;28;20239;-71
2023/10/30 00:43:21;;;;;;;8.52;4.50;;;;;;;13.28;53.82;95313.34;5003136;28;20246;-72
2023/10/30 00:45:46;;;;;;;6.68;4.05;;;;;;;13.39;53.90;95313.91;5006273;28;20310;-73
2023/10/30 00:48:12;;;;;;;6.10;4.05;;;;;;;13.34;53.60;95315.34;5002401;28;20344;-74
2023/10/30 00:50:37;;;;;;;7.35;4.18;;;;;;;13.08;54.21;95324.16;5000371;28;20300;-72
2023/10/30 00:53:03;;;;;;;9.25;4.47;;;;;;;13.02;54.62;95323.00;5000947;28;20183;-71
2023/10/30 00:55:28;;;;;;;8.10;4.38;;;;;;;12.91;54.97;95325.06;5009196;28;20230;-71
2023/10/30 00:57:53;;;;;;;9.13;4.53;;;;;;;13.03;54.60;95318.53;5000138;28;20227;-72
2023/10/30 01:00:19;;;;;;;5.18;4.00;;;;;;;13.16;54.27;95310.16;5003230;28;20219;-72
2023/10/30 01:02:44;;;;;;;7.78;3.88;;;;;;;13.05;54.98;95316.56;5000144;28;20215;-72
2023/10/30 01:05:10;;;;;;;8.05;4.57;;;;;;;13.05;54.82;95321.84;4998123;28;20183;-72
2023/10/30 01:07:36;;;;;;;8.02;4.60;;;;;;;12.80;55.26;95323.53;4986046;28;20187;-72
2023/10/30 01:10:01;;;;;;;8.52;4.60;;;;;;;12.73;55.62;95327.81;5001140;28;20223;-72
2023/10/30 01:12:27;;;;;;;6.05;4.45;;;;;;;12.81;55.41;95317.28;4997991;28;20219;-72
2023/10/30 01:14:52;;;;;;;6.68;4.60;;;;;;;12.71;55.54;95320.03;5004190;28;20215;-71
2023/10/30 01:17:18;;;;;;;7.28;4.47;;;;;;;12.65;55.66;95317.22;5000396;28;20271;-72
2023/10/30 01:19:43;;;;;;;6.55;4.70;;;;;;;12.74;55.79;95319.72;5000145;28;20237;-72
2023/10/30 01:22:09;;;;;;;6.13;4.50;;;;;;;12.91;55.21;95310.09;4997718;28;20257;-72
2023/10/30 01:24:34;;;;;;;6.15;4.30;;;;;;;12.89;55.31;95317.34;4999492;28;20219;-72
2023/10/30 01:27:00;;;;;;;7.70;4.35;;;;;;;12.69;55.82;95316.72;5000375;28;20287;-73
2023/10/30 01:29:25;;;;;;;7.50;4.20;;;;;;;12.55;56.26;95315.50;5008380;28;20256;-73
2023/10/30 01:31:50;;;;;;;9.23;4.32;;;;;;;12.74;55.71;95318.91;5006207;28;20243;-73
2023/10/30 01:34:16;;;;;;;8.25;4.45;;;;;;;12.27;57.21;95317.50;5005477;28;20224;-72
2023/10/30 01:36:41;;;;;;;7.10;4.47;;;;;;;12.21;57.09;95319.91;5000326;28;20231;-72
2023/10/30 01:39:07;;;;;;;6.88;4.22;;;;;;;12.31;57.05;95315.38;4997774;28;20234;-73
2023/10/30 01:41:32;;;;;;;4.82;4.18;;;;;;;12.51;56.51;95308.91;5003650;28;20340;-73
2023/10/30 01:43:57;;;;;;;6.47;4.55;;;;;;;12.51;56.42;95310.69;5010029;28;20206;-73
2023/10/30 01:46:23;;;;;;;8.35;4.88;;;;;;;12.61;56.11;95311.41;5009669;28;20219;-73
2023/10/30 01:48:48;;;;;;;8.98;4.10;;;;;;;12.62;56.19;95320.19;5004394;28;20294;-71
2023/10/30 01:51:17;;;;;;;8.18;4.40;;;;;;;12.58;56.49;95322.28;5009267;28;20218;-72
2023/10/30 01:53:43;;;;;;;7.50;4.57;;;;;;;12.65;56.22;95318.03;5004594;28;20280;-72
2023/10/30 01:56:09;;;;;;;5.82;4.03;;;;;;;12.53;56.44;95317.47;5003463;28;20214;-72
2023/10/30 01:58:35;;;;;;;11.55;4.28;;;;;;;12.54;56.44;95316.50;5009542;28;20227;-73
2023/10/30 02:01:01;;;;;;;8.25;4.18;;;;;;;12.57;56.45;95318.00;5001821;28;20246;-73
2023/10/30 02:03:27;;;;;;;9.82;4.65;;;;;;;12.61;56.35;95321.97;5005193;28;20223;-73
2023/10/30 02:05:53;;;;;;;6.28;4.43;;;;;;;12.64;56.05;95319.00;4993292;28;20284;-74
2023/10/30 02:08:19;;;;;;;8.27;3.95;;;;;;;12.60;56.37;95325.59;5002288;28;20179;-72
2023/10/30 02:10:44;;;;;;;8.13;4.55;;;;;;;12.39;56.67;95325.13;5007608;28;20191;-72
2023/10/30 02:13:10;;;;;;;4.35;3.78;;;;;;;12.29;57.07;95327.88;4999663;28;20302;-72
2023/10/30 02:15:36;;;;;;;5.97;4.00;;;;;;;12.48;56.53;95330.31;5003551;28;20289;-72
2023/10/30 02:18:02;;;;;;;5.38;3.60;;;;;;;12.58;56.58;95335.47;5005791;28;20258;-72
2023/10/30 02:20:28;;;;;;;8.68;3.53;;;;;;;12.55;56.57;95322.59;4987427;28;20200;-72
2023/10/30 02:22:54;;;;;;;4.75;3.25;;;;;;;12.68;56.21;95325.63;5007261;28;20179;-73
2023/10/30 02:25:22;;;;;;;5.20;3.45;;;;;;;12.68;56.28;95325.63;5006456;28;20211;-72
2023/10/30 02:27:50;;;;;;;5.25;3.35;;;;;;;12.69;56.28;95331.75;5011189;28;20219;-72
2023/10/30 02:30:16;;;;;;;3.75;2.92;;;;;;;12.61;56.38;95329.88;5003149;28;20229;-72
2023/10/30 02:32:44;;;;;;;3.92;3.22;;;;;;;12.64;56.34;95329.56;5006205;28;20310;-71
2023/10/30 02:35:16;;;;;;;4.63;3.22;;;;;;;12.77;56.11;95332.59;5006758;28;20211;-72
2023/10/30 02:37:45;;;;;;;5.72;2.88;;;;;;;12.77;55.92;95327.31;5011565;28;20214;-72
2023/10/30 02:40:11;;;;;;;6.40;3.05;;;;;;;12.74;55.69;95329.47;5002545;28;20287;-73
2023/10/30 02:42:37;;;;;;;5.07;3.33;;;;;;;12.75;55.72;95326.69;5001288;28;20264;-72
2023/10/30 02:45:03;;;;;;;5.35;3.80;;;;;;;12.29;56.94;95318.16;5001545;28;20219;-72
2023/10/30 02:47:30;;;;;;;6.63;3.47;;;;;;;12.43;56.68;95331.75;5001753;28;21881;-72
2023/10/30 02:49:55;;;;;;;6.00;3.53;;;;;;;12.45;56.69;95325.34;5007141;28;20222;-72
2023/10/30 02:52:21;;;;;;;6.78;2.97;;;;;;;12.13;57.43;95323.31;5007594;28;20223;-71
2023/10/30 02:54:46;;;;;;;6.15;3.17;;;;;;;12.29;56.98;95322.59;5002241;28;20226;-72
2023/10/30 02:57:13;;;;;;;6.25;3.13;;;;;;;12.27;57.01;95325.41;4999791;28;20326;-72
2023/10/30 02:59:38;;;;;;;6.05;3.45;;;;;;;12.17;57.53;95324.66;5008688;28;20231;-72
2023/10/30 03:02:04;;;;;;;7.22;3.65;;;;;;;12.12;57.51;95329.56;5012277;28;20175;-73
2023/10/30 03:04:30;;;;;;;6.85;3.85;;;;;;;12.27;57.22;95332.47;5003202;28;20223;-72
2023/10/30 03:06:58;;;;;;;6.75;3.60;;;;;;;12.12;57.77;95317.22;5006000;28;20211;-71
2023/10/30 03:09:25;;;;;;;5.82;3.67;;;;;;;12.19;57.41;95325.34;5008921;28;20215;-72
2023/10/30 03:11:50;;;;;;;4.95;3.20;;;;;;;12.14;57.48;95327.63;5003945;28;20222;-72
2023/10/30 03:14:16;;;;;;;5.45;3.40;;;;;;;12.16;57.48;95330.91;5008288;28;20201;-71
2023/10/30 03:16:41;;;;;;;4.20;3.38;;;;;;;12.15;57.84;95324.00;5008962;28;20215;-71
2023/10/30 03:19:07;;;;;;;10.50;3.22;;;;;;;12.32;57.13;95328.41;4997543;28;20218;-71
2023/10/30 03:21:32;;;;;;;5.53;3.10;;;;;;;12.25;57.29;95329.19;5002758;28;20211;-71
2023/10/30 03:23:57;;;;;;;5.07;3.40;;;;;;;12.16;57.52;95338.00;5003155;28;20250;-72
2023/10/30 03:26:25;;;;;;;5.15;3.10;;;;;;;12.13;57.81;95336.50;5003126;28;20282;-71
2023/10/30 03:28:50;;;;;;;5.10;3.30;;;;;;;11.91;58.03;95343.06;5003690;28;20266;-72
2023/10/30 03:31:16;;;;;;;4.25;3.22;;;;;;;11.84;58.24;95347.25;5003671;28;20690;-71
2023/10/30 03:33:41;;;;;;;6.28;3.50;;;;;;;11.80;58.50;95346.72;5000204;28;20227;-72
2023/10/30 03:36:07;;;;;;;6.00;3.40;;;;;;;11.90;58.34;95339.63;5000386;28;20263;-72
2023/10/30 03:38:32;;;;;;;5.78;3.35;;;;;;;11.90;58.21;95339.63;5000254;28;20231;-72
2023/10/30 03:40:59;;;;;;;8.13;3.72;;;;;;;11.99;58.03;95339.69;4998433;28;20228;-72
2023/10/30 03:43:24;;;;;;;4.18;3.20;;;;;;;11.89;58.36;95345.88;5003313;28;20274;-71
2023/10/30 03:45:50;;;;;;;4.22;2.78;;;;;;;12.06;57.99;95344.19;5002019;28;20218;-72
2023/10/30 03:48:15;;;;;;;10.30;3.50;;;;;;;12.06;57.99;95341.56;4999857;28;20277;-72
2023/10/30 03:50:41;;;;;;;6.53;3.47;;;;;;;11.89;58.29;95343.25;5002727;28;20253;-72
2023/10/30 03:53:06;;;;;;;5.60;3.42;;;;;;;11.52;59.37;95350.41;5001705;28;20194;-73
2023/10/30 03:55:32;;;;;;;6.85;3.75;;;;;;;11.36;59.78;95343.16;5007297;28;20251;-73
2023/10/30 03:57:57;;;;;;;6.80;3.75;;;;;;;11.48;59.42;95340.19;5005662;28;20239;-71
2023/10/30 04:00:23;;;;;;;6.15;3.40;;;;;;;11.69;58.79;95342.53;5010227;28;20214;-72
2023/10/30 04:02:49;;;;;;;10.98;3.90;;;;;;;11.73;58.50;95339.59;5002378;28;20230;-72
2023/10/30 04:05:14;;;;;;;5.53;3.53;;;;;;;11.70;58.61;95330.16;5003594;28;20179;-71
2023/10/30 04:07:39;;;;;;;4.50;3.65;;;;;;;11.42;59.24;95343.41;5007212;28;20187;-73
2023/10/30 04:10:05;;;;;;;5.72;3.53;;;;;;;11.18;59.81;95330.00;5006304;28;20219;-71
2023/10/30 04:12:31;;;;;;;5.53;3.55;;;;;;;11.22;59.90;95326.06;5002525;28;20223;-72
2023/10/30 04:14:57;;;;;;;7.40;3.93;;;;;;;11.13;60.12;95330.44;5005083;28;20231;-72
2023/10/30 04:17:23;;;;;;;4.70;3.60;;;;;;;11.41;59.27;95338.28;5006051;28;20333;-72
2023/10/30 04:19:48;;;;;;;6.72;3.67;;;;;;;11.16;59.90;95331.94;4997970;28;20192;-72
2023/10/30 04:22:14;;;;;;;6.10;3.70;;;;;;;11.33;59.85;95343.47;5004444;28;20277;-72
2023/10/30 04:24:39;;;;;;;6.55;3.42;;;;;;;11.43;59.11;95337.16;5003330;28;20617;-71
2023/10/30 04:27:06;;;;;;;4.78;3.90;;;;;;;11.41;59.19;95328.59;5000851;28;20229;-71
2023/10/30 04:29:31;;;;;;;7.40;3.65;;;;;;;11.45;59.04;95337.84;5004061;28;20276;-71
2023/10/30 04:31:56;;;;;;;5.60;3.80;;;;;;;11.29;59.52;95332.41;4999907;28;20191;-72
2023/10/30 04:34:23;;;;;;;9.57;4.05;;;;;;;11.22;59.45;95332.16;5003173;28;20267;-72
2023/10/30 04:36:48;;;;;;;8.67;4.07;;;;;;;11.12;59.76;95330.56;5001430;28;20239;-72
2023/10/30 04:39:14;;;;;;;6.90;3.50;;;;;;;10.81;60.85;95338.75;5008371;28;20224;-71
2023/10/30 04:41:40;;;;;;;8.53;4.50;;;;;;;11.08;60.10;95334.47;5004234;28;20238;-71
2023/10/30 04:44:06;;;;;;;8.60;4.30;;;;;;;11.26;59.40;95336.16;5001627;28;20183;-72
2023/10/30 04:46:31;;;;;;;7.53;4.60;;;;;;;11.18;59.69;95332.63;5000895;28;20302;-71
2023/10/30 04:48:57;;;;;;;7.50;4.05;;;;;;;11.09;59.91;95344.84;5000583;28;20306;-71
2023/10/30 04:51:23;;;;;;;5.40;4.25;;;;;;;11.14;59.90;95344.41;5011862;28;20222;-72
2023/10/30 04:53:48;;;;;;;7.82;4.10;;;;;;;10.82;60.37;95343.03;5005055;28;20314;-70
2023/10/30 04:56:13;;;;;;;10.57;4.70;;;;;;;11.15;59.91;95346.09;5004305;28;20214;-72
2023/10/30 04:58:39;;;;;;;6.28;4.20;;;;;;;11.04;59.93;95347.13;5005249;28;20183;-71
2023/10/30 05:01:09;;;;;;;6.82;3.55;;;;;;;11.02;59.93;95349.06;5001948;28;20254;-71
2023/10/30 05:03:37;;;;;;;6.13;3.83;;;;;;;10.74;60.93;95359.53;4999275;28;20224;-71
2023/10/30 05:06:03;;;;;;;5.88;4.20;;;;;;;10.83;60.78;95355.25;4999401;28;20241;-71
2023/10/30 05:08:28;;;;;;;12.95;4.70;;;;;;;10.78;61.01;95341.69;5005120;28;20194;-71
2023/10/30 05:10:54;;;;;;;9.50;4.50;;;;;;;10.98;60.38;95352.94;5002913;28;20221;-71
2023/10/30 05:13:20;;;;;;;14.38;5.50;;;;;;;11.11;60.08;95361.31;5004026;28;20222;-71
2023/10/30 05:15:46;;;;;;;10.77;5.80;;;;;;;11.03;60.23;95364.69;5003601;28;20233;-72
2023/10/30 05:18:11;;;;;;;13.70;5.40;;;;;;;11.22;59.87;95360.28;5000472;28;20219;-73
2023/10/30 05:20:37;;;;;;;8.73;5.03;;;;;;;11.06;60.28;95366.19;5003030;28;20219;-73
2023/10/30 05:23:02;;;;;;;11.02;5.38;;;;;;;11.11;60.06;95366.59;5001709;28;20184;-72
2023/10/30 05:25:28;;;;;;;8.13;4.65;;;;;;;11.12;60.09;95373.53;5003194;28;20218;-72
2023/10/30 05:27:53;;;;;;;11.80;7.00;;;;;;;11.01;60.25;95366.66;4995937;28;20219;-71
2023/10/30 05:30:19;;;;;;;9.10;5.20;;;;;;;10.98;60.85;95382.72;4998477;28;20227;-72
2023/10/30 05:32:44;;;;;;;7.30;5.20;;;;;;;11.20;59.92;95376.25;4997967;28;20306;-71
2023/10/30 05:35:10;;;;;;;9.13;5.30;;;;;;;11.08;60.23;95379.22;5004102;28;20179;-72
2023/10/30 05:37:35;;;;;;;9.10;5.20;;;;;;;10.81;61.11;95386.13;5003601;28;20193;-73
2023/10/30 05:40:00;;;;;;;11.03;5.80;;;;;;;11.03;60.35;95388.38;4999585;28;20218;-71
2023/10/30 05:42:26;;;;;;;9.17;5.00;;;;;;;11.15;60.39;95389.03;4994259;28;20557;-72
2023/10/30 05:44:51;;;;;;;9.77;5.18;;;;;;;11.24;60.41;95389.94;5003297;28;20260;-72
2023/10/30 05:47:17;;;;;;;12.98;5.50;;;;;;;10.87;61.31;95400.50;5004009;28;20286;-72
2023/10/30 05:49:42;;;;;;;8.73;5.30;;;;;;;10.82;61.49;95395.66;5002248;28;20168;-72
2023/10/30 05:52:09;;;;;;;12.77;5.93;;;;;;;11.01;60.89;95392.97;5008084;28;20322;-71
2023/10/30 05:54:35;;;;;;;10.27;6.10;;;;;;;10.89;61.17;95399.38;5003747;28;20226;-71
2023/10/30 05:57:00;;;;;;;8.27;5.53;;;;;;;10.93;61.13;95394.63;5004338;28;20238;-71
2023/10/30 05:59:26;;;;;;;10.45;5.70;;;;;;;11.30;60.13;95401.69;4997410;28;20195;-72
2023/10/30 06:01:52;;;;;;;13.43;5.75;;;;;;;11.40;60.14;95408.56;5001312;28;20240;-71
2023/10/30 06:04:17;;;;;;;12.25;5.97;;;;;;;11.51;59.93;95401.44;4995272;28;20222;-66
2023/10/30 06:06:43;;;;;;;12.82;5.85;;;;;;;11.67;59.43;95399.78;5005769;28;20219;-66
2023/10/30 06:09:08;;;;;;;6.85;4.78;;;;;;;11.58;59.83;95403.31;5001236;28;20306;-69
2023/10/30 06:11:33;;;;;;;6.72;4.38;;;;;;;11.73;59.47;95410.72;4995334;28;20224;-70
2023/10/30 06:13:59;;;;;;;8.82;4.93;;;;;;;11.87;59.45;95405.81;5005152;28;20183;-69
2023/10/30 06:16:24;;;;;;;8.68;4.72;;;;;;;11.91;58.98;95409.78;5003507;28;20233;-71
2023/10/30 06:18:50;;;;;;;8.38;4.80;;;;;;;11.83;59.11;95412.31;4999493;28;20223;-70
2023/10/30 06:21:16;;;;;;;7.50;5.13;;;;;;;11.80;59.34;95417.88;5005250;28;20342;-69
2023/10/30 06:23:42;;;;;;;11.13;5.40;;;;;;;11.84;59.27;95419.25;4998780;28;20226;-72
2023/10/30 06:26:12;;;;;;;10.70;5.25;;;;;;;11.94;59.47;95421.00;5002296;28;20183;-72
2023/10/30 06:28:39;;;;;;;8.38;5.45;;;;;;;12.00;58.91;95423.88;4983968;28;20262;-73
2023/10/30 06:31:12;;;;;;;8.45;4.82;;;;;;;12.19;58.68;95422.91;4998779;28;20243;-74
2023/10/30 06:33:37;;;;;;;7.05;4.75;;;;;;;12.28;58.13;95418.50;5009248;28;20224;-73
2023/10/30 06:36:03;;;;;;;10.32;5.00;;;;;;;12.20;58.70;95421.91;5000464;28;20227;-75
2023/10/30 06:38:28;;;;;;;8.27;5.18;;;;;;;12.22;58.34;95419.94;5011718;28;20245;-73
2023/10/30 06:40:54;;;;;;;7.53;5.07;;;;;;;12.31;58.36;95423.47;5008963;28;20274;-74
2023/10/30 06:43:20;;;;;;;9.07;5.30;;;;;;;12.48;57.55;95414.72;5002630;28;20219;-72
2023/10/30 06:45:45;;;;;;;8.23;5.22;;;;;;;12.47;58.00;95422.78;5004133;28;20203;-74
2023/10/30 06:48:11;;;;;;;13.52;6.10;;;;;;;12.56;57.34;95419.22;4998218;28;20366;-73
2023/10/30 06:50:36;;;;;;;10.07;4.88;;;;;;;12.76;57.01;95420.66;4999053;28;20234;-74
2023/10/30 06:53:02;;;;;;;12.32;6.22;;;;;;;12.83;57.10;95423.53;4978397;28;20279;-73
2023/10/30 06:55:27;;;;;;;13.02;5.80;;;;;;;12.94;56.26;95422.44;4988519;28;20227;-72
2023/10/30 06:57:52;;;;;;;10.68;6.20;;;;;;;13.29;55.40;95413.56;4987507;28;20237;-73
2023/10/30 07:00:19;;;;;;;9.32;4.50;;;;;;;13.12;55.82;95401.22;4982044;28;20223;-73
2023/10/30 07:02:45;;;;;;;7.28;4.70;;;;;;;13.11;55.98;95410.97;4983143;28;20231;-71
2023/10/30 07:05:11;;;;;;;13.35;4.18;;;;;;;13.30;55.83;95414.38;4979759;28;20317;-72
2023/10/30 07:07:36;;;;;;;8.90;3.65;;;;;;;13.43;55.29;95412.94;4981121;28;20294;-74
2023/10/30 07:10:02;;;;;;;7.68;4.18;;;;;;;13.53;55.12;95402.25;4984424;28;20243;-73
2023/10/30 07:12:28;;;;;;;8.95;4.20;;;;;;;13.64;55.13;95411.72;4981668;28;20341;-71
2023/10/30 07:14:54;;;;;;;6.18;3.45;;;;;;;13.74;54.88;95406.25;4981642;28;20243;-75
2023/10/30 07:17:19;;;;;;;6.40;3.20;;;;;;;13.86;54.89;95407.63;4989527;28;20291;-72
2023/10/30 07:19:46;;;;;;;6.35;3.42;;;;;;;13.98;54.20;95408.97;4985414;28;20184;-76
2023/10/30 07:22:12;;;;;;;5.22;3.47;;;;;;;14.02;54.62;95410.28;4982786;28;20222;-70
2023/10/30 07:24:37;;;;;;;7.57;3.90;;;;;;;14.18;53.79;95408.66;4997664;28;20222;-76
2023/10/30 07:27:03;;;;;;;7.20;4.03;;;;;;;14.22;53.34;95399.41;4994753;28;20238;-73
2023/10/30 07:29:28;;;;;;;6.93;3.92;;;;;;;14.15;53.55;95409.81;4994206;28;20273;-74
2023/10/30 07:31:55;;;;;;;8.02;4.32;;;;;;;14.25;53.44;95409.66;4993365;28;20184;-77
2023/10/30 07:34:21;;;;;;;4.57;3.83;;;;;;;14.44;52.95;95411.16;4993722;28;20223;-76
2023/10/30 07:36:47;;;;;;;7.60;3.80;;;;;;;14.43;52.84;95401.56;4991347;28;20242;-74
2023/10/30 07:39:13;;;;;;;7.28;4.03;;;;;;;14.53;52.78;95407.53;4993278;28;20219;-76
2023/10/30 07:41:39;;;;;;;7.68;4.20;;;;;;;14.63;52.57;95410.84;4999158;28;20330;-78
2023/10/30 07:44:07;;;;;;;4.95;4.45;;;;;;;14.67;52.26;95408.69;4989767;28;20182;-77
2023/10/30 07:46:32;;;;;;;8.00;5.03;;;;;;;14.64;52.49;95409.00;4993137;28;20242;-76
2023/10/30 07:48:58;;;;;;;10.63;5.88;;;;;;;14.70;52.34;95409.19;4992542;28;20244;-75
2023/10/30 07:51:23;;;;;;;10.95;5.57;;;;;;;14.63;52.12;95413.47;4980950;28;20268;-75
2023/10/30 07:53:49;;;;;;;12.27;6.40;;;;;;;14.69;52.11;95406.69;4994342;28;20307;-75
2023/10/30 07:56:15;;;;;;;8.20;6.30;;;;;;;14.70;51.86;95409.19;4990307;28;20203;-74
2023/10/30 07:58:40;;;;;;;10.95;6.25;;;;;;;14.73;52.05;95411.50;4995415;28;20186;-71
2023/10/30 08:01:06;;;;;;;11.43;7.70;;;;;;;14.91;51.56;95403.34;4992675;28;20234;-73
2023/10/30 08:03:31;;;;;;;10.82;6.20;;;;;;;15.03;51.09;95409.13;4994942;28;20229;-74
2023/10/30 08:06:00;;;;;;;9.93;6.05;;;;;;;15.03;51.11;95411.75;4993031;28;20247;-69
2023/10/30 08:08:28;;;;;;;9.85;6.18;;;;;;;15.03;51.20;95409.13;4995960;28;20183;-72
2023/10/30 08:10:54;;;;;;;10.80;6.45;;;;;;;14.95;51.29;95402.00;4992622;28;20728;-73
2023/10/30 08:13:19;;;;;;;9.27;6.15;;;;;;;14.98;51.64;95398.19;4993742;28;20218;-74
2023/10/30 08:15:44;;;;;;;15.38;7.13;;;;;;;15.18;50.98;95401.28;4992037;28;20231;-75
2023/10/30 08:18:10;;;;;;;11.95;7.90;;;;;;;15.22;51.16;95397.31;4990254;28;20215;-73
2023/10/30 08:20:35;;;;;;;11.60;6.70;;;;;;;15.39;50.51;95390.94;4991958;28;20227;-70
2023/10/30 08:23:01;;;;;;;11.55;7.25;;;;;;;15.30;50.83;95393.81;4995395;28;20189;-70
2023/10/30 08:25:27;;;;;;;10.52;7.82;;;;;;;15.25;51.66;95391.66;4992989;28;20227;-70
2023/10/30 08:27:52;;;;;;;14.30;7.60;;;;;;;15.32;50.86;95387.34;4992129;28;20224;-69
2023/10/30 08:30:18;;;;;;;11.00;7.82;;;;;;;15.24;50.83;95386.53;4994805;28;20298;-69
2023/10/30 08:32:45;;;;;;;13.20;7.40;;;;;;;15.55;50.42;95387.38;4992630;28;20245;-69
2023/10/30 08:35:10;;;;;;;14.90;7.60;;;;;;;15.75;50.07;95390.47;4994066;28;20198;-71
2023/10/30 08:37:36;;;;;;;14.30;8.27;;;;;;;15.83;49.89;95390.41;4998752;28;20206;-70
2023/10/30 08:40:01;;;;;;;11.25;7.15;;;;;;;15.96;50.00;95391.66;4994247;28;20224;-70
2023/10/30 08:42:26;;;;;;;9.73;7.20;;;;;;;16.03;49.59;95389.97;4987530;28;20235;-73
2023/10/30 08:44:52;;;;;;;12.48;7.72;;;;;;;16.07;49.56;95386.78;4993309;28;20306;-74
2023/10/30 08:47:17;;;;;;;14.40;9.38;;;;;;;16.19;49.38;95386.38;4992879;28;20211;-65
2023/10/30 08:49:43;;;;;;;10.65;7.85;;;;;;;16.27;49.48;95392.44;4988039;28;20246;-67
2023/10/30 08:52:09;;;;;;;9.93;6.82;;;;;;;16.29;49.74;95390.44;4993099;28;20282;-70
2023/10/30 08:54:34;;;;;;;10.70;7.38;;;;;;;16.46;49.33;95380.50;4990524;28;20282;-70
2023/10/30 08:57:00;;;;;;;11.40;6.45;;;;;;;16.68;48.50;95383.28;4992822;28;20230;-73
2023/10/30 08:59:25;;;;;;;9.63;6.97;;;;;;;16.49;49.22;95381.97;4993923;28;20278;-70
2023/10/30 09:01:51;;;;;;;13.25;7.07;;;;;;;16.50;49.32;95375.66;4997999;28;20194;-69
2023/10/30 09:04:16;;;;;;;11.40;6.82;;;;;;;16.62;49.06;95378.72;4989314;28;20301;-73
2023/10/30 09:06:42;;;;;;;12.07;7.97;;;;;;;16.71;49.07;95375.81;4994486;28;20238;-75
2023/10/30 09:09:08;;;;;;;11.50;8.07;;;;;;;16.83;49.04;95375.38;4993105;28;20214;-74
2023/10/30 09:11:34;;;;;;;12.73;7.32;;;;;;;16.98;48.57;95378.88;4988592;28;20237;-74
2023/10/30 09:13:59;;;;;;;13.70;6.63;;;;;;;17.08;48.81;95368.81;4997174;28;20183;-75
2023/10/30 09:16:25;;;;;;;9.18;6.03;;;;;;;17.22;48.70;95364.50;4998326;28;20262;-75
2023/10/30 09:18:52;;;;;;;10.85;6.75;;;;;;;17.32;48.48;95359.72;4994694;28;20230;-73
2023/10/30 09:21:18;;;;;;;12.57;6.13;;;;;;;17.32;48.82;95359.72;4997270;28;20229;-73
2023/10/30 09:23:43;;;;;;;10.35;6.35;;;;;;;17.37;48.73;95351.19;4997516;28;20214;-73
2023/10/30 09:26:12;;;;;;;13.48;6.32;;;;;;;17.53;48.60;95356.28;4999819;28;20186;-74
2023/10/30 09:28:37;;;;;;;11.27;6.22;;;;;;;17.62;48.65;95346.38;5000109;28;20261;-70
2023/10/30 09:31:03;;;;;;;12.50;6.20;;;;;;;17.75;48.02;95346.53;4990925;28;20224;-71
2023/10/30 09:33:28;;;;;;;11.05;6.32;;;;;;;17.68;48.38;95347.47;4992834;28;20319;-70
2023/10/30 09:35:54;;;;;;;12.45;6.35;;;;;;;17.87;48.19;95348.72;4995972;28;20227;-68
2023/10/30 09:38:19;;;;;;;8.82;4.80;;;;;;;17.96;48.61;95337.78;4992454;28;20222;-70
2023/10/30 09:40:56;;;;;;;11.98;5.78;;;;;;;18.03;48.39;95336.00;4997194;28;20207;-67
2023/10/30 09:43:26;;;;;;;13.55;5.68;;;;;;;18.19;48.33;95329.59;5002934;28;20218;-66
2023/10/30 09:45:56;;;;;;;8.00;5.15;;;;;;;18.33;48.29;95325.19;4991985;28;20231;-67
2023/10/30 09:48:23;;;;;;;10.05;5.55;;;;;;;18.46;47.65;95329.81;4988296;28;20221;-65
2023/10/30 09:50:50;;;;;;;8.48;4.80;;;;;;;18.51;47.75;95327.41;4994390;28;20215;-66
2023/10/30 09:53:16;;;;;;;9.98;5.55;;;;;;;18.62;46.39;95320.72;4993258;28;20187;-68
2023/10/30 09:55:43;;;;;;;11.52;6.20;;;;;;;18.56;46.13;95319.66;4981769;28;20203;-71
2023/10/30 09:58:09;;;;;;;7.80;4.95;;;;;;;18.69;46.04;95314.41;4992251;28;20220;-70
2023/10/30 10:00:36;;;;;;;9.60;5.20;;;;;;;18.75;45.21;95307.53;4994130;28;20223;-70
2023/10/30 10:03:04;;;;;;;7.13;4.65;;;;;;;18.64;45.75;95305.38;4999236;28;20226;-72
2023/10/30 10:05:30;;;;;;;7.82;4.53;;;;;;;18.68;45.98;95293.28;5003594;28;20733;-70
2023/10/30 10:07:56;;;;;;;6.53;4.10;;;;;;;18.79;44.84;95287.47;5002927;28;20230;-70
2023/10/30 10:10:21;;;;;;;6.05;3.75;;;;;;;18.94;44.01;95288.16;4994784;28;20223;-65
2023/10/30 10:12:51;;;;;;;7.32;3.95;;;;;;;18.88;45.00;95290.81;4996222;28;20221;-66
2023/10/30 10:15:17;;;;;;;8.85;4.60;;;;;;;18.99;44.89;95276.09;4996389;28;20218;-69
2023/10/30 10:17:45;;;;;;;6.30;3.90;;;;;;;19.21;43.47;95268.81;4997979;28;20241;-69
2023/10/30 10:20:11;;;;;;;5.72;3.47;;;;;;;19.39;42.77;95269.91;4997292;28;20222;-71
2023/10/30 10:22:38;;;;;;;6.65;3.60;;;;;;;19.22;43.43;95263.28;4999329;28;20194;-72
2023/10/30 10:25:04;;;;;;;7.97;4.18;;;;;;;19.41;43.42;95266.22;4992244;28;20224;-71
2023/10/30 10:27:30;;;;;;;6.28;4.13;;;;;;;19.33;43.57;95260.03;4998524;28;20302;-71
2023/10/30 10:29:57;;;;;;;6.18;4.03;;;;;;;19.41;43.36;95255.56;4995779;28;20318;-72
2023/10/30 10:32:26;;;;;;;6.88;4.35;;;;;;;19.53;43.31;95254.75;4995406;28;20191;-71
2023/10/30 10:35:07;;;;;;;6.55;3.00;;;;;;;19.83;41.72;95249.94;4997187;28;20188;-68
2023/10/30 10:37:33;;;;;;;5.80;2.95;;;;;;;19.58;42.86;95244.31;5000589;28;20223;-69
2023/10/30 10:39:59;;;;;;;5.32;3.50;;;;;;;19.64;42.67;95247.19;4993642;28;20245;-68
2023/10/30 10:42:27;;;;;;;3.88;2.90;;;;;;;19.77;42.50;95242.72;4986973;28;20230;-67
2023/10/30 10:44:55;;;;;;;6.32;3.28;;;;;;;19.93;41.37;95235.34;4999792;28;20218;-67
2023/10/30 10:47:22;;;;;;;6.78;3.78;;;;;;;19.93;41.95;95240.69;5010830;28;20266;-67
2023/10/30 10:49:48;;;;;;;7.50;3.58;;;;;;;20.13;42.04;95246.03;4998050;28;20211;-67
2023/10/30 10:52:15;;;;;;;7.93;3.60;;;;;;;20.17;42.09;95232.06;4994836;28;20219;-70
2023/10/30 10:54:56;;;;;;;7.80;3.55;;;;;;;20.46;41.63;95230.81;4995028;28;20239;-67
2023/10/30 10:57:23;;;;;;;11.32;4.53;;;;;;;20.33;43.25;95225.50;4991399;28;20235;-69
2023/10/30 11:00:00;;;;;;;9.02;3.97;;;;;;;20.46;41.75;95208.63;4978414;28;20227;-69
2023/10/30 11:02:30;;;;;;;5.75;3.67;;;;;;;20.65;40.77;95220.34;4964989;28;20540;-68
2023/10/30 11:04:57;;;;;;;7.95;3.92;;;;;;;20.67;41.37;95221.75;4975419;28;20251;-68
2023/10/30 11:07:30;;;;;;;7.55;5.55;;;;;;;20.83;40.95;95219.69;4969143;28;20227;-71
2023/10/30 11:10:00;;;;;;;8.32;3.88;;;;;;;20.89;40.49;95218.81;4975061;28;20230;-69
2023/10/30 11:12:59;;;;;;;7.22;4.45;;;;;;;20.91;39.86;95204.22;4976701;28;20224;-75
2023/10/30 11:15:32;;;;;;;7.45;3.85;;;;;;;21.14;40.09;95205.56;4997582;28;20226;-74
2023/10/30 11:18:17;;;;;;;7.93;3.60;;;;;;;21.05;40.35;95191.63;4979452;28;20311;-77
2023/10/30 11:20:44;;;;;;;9.13;3.28;;;;;;;21.03;41.25;95196.34;4979320;28;20220;-74
2023/10/30 11:23:10;;;;;;;9.65;3.47;;;;;;;21.23;39.90;95187.44;4976824;28;20258;-77
2023/10/30 11:25:57;;;;;;;13.20;3.47;;;;;;;21.40;37.76;95187.78;4975971;28;20184;-75
2023/10/30 11:28:23;;;;;;;6.82;3.05;;;;;;;21.62;36.73;95185.56;4981707;28;20226;-73